createdAt,value
2023-02-05T00:01:18.247Z,61.17
2023-02-05T00:04:04.925Z,55.67
2023-02-05T00:06:51.549Z,53.33
2023-02-05T00:09:40.905Z,59.17
2023-02-05T00:12:28.017Z,54.30
2023-02-05T00:15:14.504Z,59.05
2023-02-05T00:18:02.447Z,54.47
2023-02-05T00:20:48.729Z,62.67
2023-02-05T00:23:36.212Z,56.40
2023-02-05T00:26:22.813Z,60.08
2023-02-05T00:29:09.445Z,54.30
2023-02-05T00:31:56.397Z,53.03
2023-02-05T00:34:45.157Z,54.88
2023-02-05T00:37:32.193Z,59.92
2023-02-05T00:40:19.461Z,66.00
2023-02-05T00:43:06.193Z,61.20
2023-02-05T00:45:53.266Z,59.97
2023-02-05T00:48:41.208Z,65.60
2023-02-05T00:51:29.783Z,59.20
2023-02-05T00:54:16.170Z,59.25
2023-02-05T00:57:02.849Z,59.83
2023-02-05T00:59:49.170Z,60.63
2023-02-05T01:02:36.166Z,57.90
2023-02-05T01:05:23.660Z,64.93
2023-02-05T01:08:14.149Z,63.00
2023-02-05T01:11:01.279Z,59.17
2023-02-05T01:13:48.467Z,54.70
2023-02-05T01:16:35.072Z,63.42
2023-02-05T01:19:21.949Z,57.90
2023-02-05T01:22:11.248Z,61.30
2023-02-05T01:24:59.448Z,55.80
2023-02-05T01:27:46.112Z,61.75
2023-02-05T01:30:34.040Z,62.10
2023-02-05T01:33:21.094Z,58.72
2023-02-05T01:36:07.800Z,66.00
2023-02-05T01:38:54.441Z,63.47
2023-02-05T01:41:44.562Z,58.58
2023-02-05T01:44:32.283Z,59.58
2023-02-05T01:47:19.173Z,55.78
2023-02-05T01:50:06.048Z,57.58
2023-02-05T01:52:53.566Z,58.15
2023-02-05T01:55:44.851Z,49.13
2023-02-05T01:58:37.001Z,50.35
2023-02-05T02:01:24.270Z,47.65
2023-02-05T02:04:15.558Z,53.13
2023-02-05T02:07:02.709Z,48.97
2023-02-05T02:09:50.568Z,42.60
2023-02-05T02:12:39.300Z,47.67
2023-02-05T02:15:29.350Z,50.22
2023-02-05T02:18:28.041Z,47.45
2023-02-05T02:21:41.629Z,42.65
2023-02-05T02:25:01.859Z,43.83
2023-02-05T02:27:54.897Z,44.78
2023-02-05T02:30:44.991Z,40.70
2023-02-05T02:33:37.509Z,44.50
2023-02-05T02:36:31.223Z,38.42
2023-02-05T02:39:24.212Z,35.65
2023-02-05T02:42:16.576Z,33.42
2023-02-05T02:45:09.649Z,37.70
2023-02-05T02:48:00.856Z,35.10
2023-02-05T02:50:53.058Z,33.67
2023-02-05T02:53:45.064Z,38.75
2023-02-05T02:56:34.604Z,33.60
2023-02-05T02:59:25.825Z,31.87
2023-02-05T03:02:15.925Z,35.80
2023-02-05T03:05:05.938Z,33.28
2023-02-05T03:07:57.618Z,28.98
2023-02-05T03:10:49.136Z,30.30
2023-02-05T03:13:35.868Z,26.52
2023-02-05T03:16:24.479Z,26.58
2023-02-05T03:19:13.585Z,23.90
2023-02-05T03:22:04.616Z,29.55
2023-02-05T03:24:52.437Z,28.90
2023-02-05T03:27:40.155Z,22.67
2023-02-05T03:30:33.284Z,27.17
2023-02-05T03:33:31.721Z,24.35
2023-02-05T03:36:27.430Z,19.02
2023-02-05T03:39:27.811Z,17.73
2023-02-05T03:42:28.297Z,19.92
2023-02-05T03:45:22.645Z,18.52
2023-02-05T03:48:36.561Z,19.23
2023-02-05T03:51:32.994Z,15.13
2023-02-05T03:54:28.539Z,17.58
2023-02-05T03:57:22.402Z,16.92
2023-02-05T04:00:11.395Z,16.77
2023-02-05T04:03:00.583Z,16.85
2023-02-05T04:05:51.221Z,12.98
2023-02-05T04:08:40.894Z,11.85
2023-02-05T04:11:28.271Z,17.25
2023-02-05T04:14:15.544Z,14.95
2023-02-05T04:17:03.570Z,19.60
2023-02-05T04:19:50.127Z,13.23
2023-02-05T04:22:39.819Z,16.23
2023-02-05T04:25:27.941Z,18.55
2023-02-05T04:28:20.123Z,18.98
2023-02-05T04:31:08.640Z,21.73
2023-02-05T04:33:55.907Z,18.42
2023-02-05T04:36:42.641Z,20.50
2023-02-05T04:39:29.322Z,18.83
2023-02-05T04:42:17.115Z,21.75
2023-02-05T04:45:05.968Z,17.35
2023-02-05T04:47:52.663Z,22.77
2023-02-05T04:50:39.245Z,19.85
2023-02-05T04:53:25.766Z,30.98
2023-02-05T04:56:14.414Z,19.15
2023-02-05T04:59:02.404Z,20.85
2023-02-05T05:01:48.931Z,24.75
2023-02-05T05:04:35.662Z,43.78
2023-02-05T05:07:22.455Z,21.48
2023-02-05T05:10:10.030Z,13.98
2023-02-05T05:12:56.673Z,8.23
2023-02-05T05:15:45.091Z,10.65
2023-02-05T05:18:32.148Z,8.23
2023-02-05T05:21:18.694Z,9.27
2023-02-05T05:24:05.937Z,7.47
2023-02-05T05:26:52.485Z,5.65
2023-02-05T05:29:39.226Z,3.83
2023-02-05T05:32:27.003Z,6.07
2023-02-05T05:35:13.739Z,2.72
2023-02-05T05:38:01.174Z,8.30
2023-02-05T05:41:06.164Z,8.75
2023-02-05T05:43:53.864Z,7.07
2023-02-05T05:46:40.569Z,7.38
2023-02-05T05:49:28.479Z,10.02
2023-02-05T05:52:15.359Z,14.38
2023-02-05T05:55:01.994Z,9.80
2023-02-05T05:57:48.598Z,15.60
2023-02-05T06:00:35.900Z,7.18
2023-02-05T06:03:23.976Z,13.70
2023-02-05T06:06:13.470Z,15.82
2023-02-05T06:09:00.141Z,11.18
2023-02-05T06:11:46.844Z,10.13
2023-02-05T06:14:33.878Z,14.30
2023-02-05T06:17:21.522Z,4.75
2023-02-05T06:20:08.572Z,11.77
2023-02-05T06:22:56.630Z,14.05
2023-02-05T06:25:43.118Z,10.77
2023-02-05T06:28:29.697Z,15.57
2023-02-05T06:31:17.413Z,6.93
2023-02-05T06:34:04.184Z,7.15
2023-02-05T06:36:50.900Z,9.55
2023-02-05T06:39:38.934Z,11.43
2023-02-05T06:42:25.720Z,9.65
2023-02-05T06:45:12.482Z,11.80
2023-02-05T06:47:59.084Z,8.15
2023-02-05T06:50:45.659Z,12.38
2023-02-05T06:53:32.275Z,11.23
2023-02-05T06:56:20.202Z,9.65
2023-02-05T06:59:07.073Z,12.02
2023-02-05T07:01:53.855Z,11.98
2023-02-05T07:04:40.238Z,14.50
2023-02-05T07:07:27.157Z,10.05
2023-02-05T07:10:13.804Z,11.25
2023-02-05T07:13:01.760Z,13.52
2023-02-05T07:15:49.752Z,15.15
2023-02-05T07:18:36.531Z,9.57
2023-02-05T07:21:22.851Z,18.58
2023-02-05T07:24:09.880Z,18.02
2023-02-05T07:26:56.888Z,15.70
2023-02-05T07:29:44.640Z,14.90
2023-02-05T07:32:31.228Z,16.83
2023-02-05T07:35:17.880Z,11.55
2023-02-05T07:38:04.642Z,15.02
2023-02-05T07:40:51.121Z,27.92
2023-02-05T07:43:37.795Z,18.88
2023-02-05T07:46:25.686Z,18.55
2023-02-05T07:49:12.336Z,20.15
2023-02-05T07:51:58.982Z,17.33
2023-02-05T07:54:45.384Z,14.43
2023-02-05T07:57:31.913Z,21.98
2023-02-05T08:00:18.902Z,25.15
2023-02-05T08:03:06.793Z,22.50
2023-02-05T08:05:53.308Z,18.88
2023-02-05T08:08:40.073Z,20.98
2023-02-05T08:11:26.674Z,17.15
2023-02-05T08:14:16.660Z,18.80
2023-02-05T08:17:03.293Z,12.63
2023-02-05T08:19:51.463Z,16.35
2023-02-05T08:22:40.600Z,17.92
2023-02-05T08:25:27.328Z,18.05
2023-02-05T08:28:14.121Z,23.48
2023-02-05T08:31:00.748Z,13.38
2023-02-05T08:33:47.896Z,24.30
2023-02-05T08:36:35.723Z,25.42
2023-02-05T08:39:22.368Z,22.67
2023-02-05T08:42:09.062Z,15.70
2023-02-05T08:44:58.350Z,24.40
2023-02-05T08:47:45.098Z,27.58
2023-02-05T08:50:31.721Z,27.05
2023-02-05T08:53:19.485Z,18.63
2023-02-05T08:56:06.960Z,27.52
2023-02-05T08:58:53.363Z,25.02
2023-02-05T09:01:40.850Z,25.15
2023-02-05T09:04:27.607Z,41.08
2023-02-05T09:07:14.128Z,34.78
2023-02-05T09:10:01.929Z,31.45
2023-02-05T09:12:48.746Z,21.48
2023-02-05T09:15:35.712Z,24.63
2023-02-05T09:18:22.491Z,23.42
2023-02-05T09:21:10.853Z,24.40
2023-02-05T09:23:58.223Z,25.67
2023-02-05T09:26:46.227Z,25.50
2023-02-05T09:29:32.665Z,27.85
2023-02-05T09:32:19.271Z,24.52
2023-02-05T09:35:06.101Z,28.30
2023-02-05T09:37:52.368Z,22.70
2023-02-05T09:40:44.227Z,21.02
2023-02-05T09:43:45.230Z,22.45
2023-02-05T09:46:42.742Z,31.77
2023-02-05T09:49:31.479Z,25.60
2023-02-05T09:52:22.937Z,23.40
2023-02-05T09:55:20.430Z,21.80
2023-02-05T09:58:12.466Z,31.60
2023-02-05T10:01:03.736Z,32.75
2023-02-05T10:03:56.101Z,32.63
2023-02-05T10:07:01.992Z,29.02
2023-02-05T10:10:16.205Z,22.13
2023-02-05T10:13:32.570Z,26.48
2023-02-05T10:16:37.150Z,29.40
2023-02-05T10:19:47.724Z,29.88
2023-02-05T10:22:46.847Z,40.65
2023-02-05T10:25:45.809Z,27.30
2023-02-05T10:28:54.991Z,26.33
2023-02-05T10:31:44.833Z,25.60
2023-02-05T10:34:47.404Z,30.58
2023-02-05T10:37:42.824Z,27.55
2023-02-05T10:40:34.720Z,30.33
2023-02-05T10:43:26.618Z,22.40
2023-02-05T10:46:15.022Z,24.38
2023-02-05T10:49:09.812Z,26.13
2023-02-05T10:51:56.572Z,31.10
2023-02-05T10:54:43.710Z,29.02
2023-02-05T10:57:37.598Z,24.63
2023-02-05T11:00:24.529Z,22.70
2023-02-05T11:03:19.206Z,29.02
2023-02-05T11:06:10.998Z,19.83
2023-02-05T11:08:57.690Z,34.55
2023-02-05T11:11:44.412Z,22.17
2023-02-05T11:14:35.188Z,23.45
2023-02-05T11:17:24.435Z,23.13
2023-02-05T11:20:29.803Z,27.58
2023-02-05T11:23:20.650Z,28.02
2023-02-05T11:26:17.642Z,26.38
2023-02-05T11:29:21.078Z,19.23
2023-02-05T11:32:19.979Z,19.77
2023-02-05T11:35:17.232Z,24.35
2023-02-05T11:38:10.154Z,28.42
2023-02-05T11:41:00.326Z,22.80
2023-02-05T11:46:45.555Z,25.55
2023-02-05T11:49:35.847Z,29.73
2023-02-05T11:55:26.522Z,15.85
2023-02-05T11:58:36.261Z,22.73
2023-02-05T12:01:25.989Z,22.38
2023-02-05T12:04:20.067Z,20.27
2023-02-05T12:07:16.100Z,21.92
2023-02-05T12:10:02.902Z,32.17
2023-02-05T12:13:02.567Z,28.85
2023-02-05T12:16:01.510Z,19.30
2023-02-05T12:18:57.760Z,20.48
2023-02-05T12:21:54.669Z,18.95
2023-02-05T12:25:00.506Z,22.50
2023-02-05T12:28:05.863Z,16.13
2023-02-05T12:31:05.917Z,17.48
2023-02-05T12:34:10.059Z,15.97
2023-02-05T12:37:13.167Z,26.05
2023-02-05T12:40:08.677Z,17.80
2023-02-05T12:43:01.968Z,17.45
2023-02-05T12:45:58.714Z,19.52
2023-02-05T12:49:01.691Z,18.20
2023-02-05T12:52:01.941Z,21.35
2023-02-05T12:54:59.704Z,23.90
2023-02-05T12:57:50.918Z,27.60
2023-02-05T13:00:42.519Z,21.13
2023-02-05T13:03:38.271Z,18.90
2023-02-05T13:06:31.342Z,21.77
2023-02-05T13:09:23.866Z,21.15
2023-02-05T13:12:14.800Z,16.55
2023-02-05T13:15:08.327Z,21.25
2023-02-05T13:18:00.488Z,16.83
2023-02-05T13:21:08.370Z,22.90
2023-02-05T13:24:23.179Z,18.15
2023-02-05T13:27:38.764Z,27.85
2023-02-05T13:30:29.463Z,20.05
2023-02-05T13:33:16.077Z,22.20
2023-02-05T13:36:29.174Z,28.20
2023-02-05T13:39:34.670Z,17.55
2023-02-05T13:42:45.644Z,21.88
2023-02-05T13:45:53.786Z,27.77
2023-02-05T13:49:15.919Z,34.22
2023-02-05T13:52:29.600Z,28.48
2023-02-05T13:55:43.530Z,24.98
2023-02-05T13:58:33.300Z,21.30
2023-02-05T14:01:25.032Z,23.80
2023-02-05T14:04:21.866Z,36.15
2023-02-05T14:07:26.942Z,33.92
2023-02-05T14:10:28.820Z,28.27
2023-02-05T14:13:23.928Z,21.17
2023-02-05T14:16:36.374Z,34.50
2023-02-05T14:19:26.525Z,22.48
2023-02-05T14:22:33.052Z,27.27
2023-02-05T14:26:02.247Z,22.55
2023-02-05T14:28:53.811Z,24.30
2023-02-05T14:31:49.483Z,31.70
2023-02-05T14:34:58.709Z,28.77
2023-02-05T14:37:48.318Z,24.10
2023-02-05T14:40:36.312Z,25.02
2023-02-05T14:43:28.276Z,22.55
2023-02-05T14:46:30.360Z,27.85
2023-02-05T14:49:24.647Z,25.35
2023-02-05T14:52:27.359Z,28.95
2023-02-05T14:55:21.100Z,26.95
2023-02-05T14:58:11.678Z,29.35
2023-02-05T15:04:03.832Z,26.77
2023-02-05T15:06:51.807Z,30.15
2023-02-05T15:09:43.001Z,32.72
2023-02-05T15:12:42.521Z,31.55
2023-02-05T15:15:34.376Z,33.45
2023-02-05T15:18:25.258Z,34.65
2023-02-05T15:21:17.770Z,35.00
2023-02-05T15:24:14.853Z,39.22
2023-02-05T15:27:04.925Z,28.35
2023-02-05T15:29:57.278Z,28.13
2023-02-05T15:32:49.558Z,26.70
2023-02-05T15:35:37.657Z,32.33
2023-02-05T15:38:33.705Z,29.85
2023-02-05T15:41:22.769Z,31.13
2023-02-05T15:44:21.267Z,31.88
2023-02-05T15:47:15.360Z,39.67
2023-02-05T15:50:03.572Z,39.35
2023-02-05T15:52:50.236Z,29.83
2023-02-05T15:55:39.382Z,31.92
2023-02-05T15:58:27.693Z,29.15
2023-02-05T16:01:24.430Z,49.03
2023-02-05T16:04:18.830Z,26.48
2023-02-05T16:07:18.790Z,34.33
2023-02-05T16:10:17.556Z,37.78
2023-02-05T16:13:07.562Z,27.52
2023-02-05T16:16:01.139Z,38.15
2023-02-05T16:18:52.411Z,27.45
2023-02-05T16:21:45.069Z,33.60
2023-02-05T16:24:34.705Z,24.10
2023-02-05T16:27:27.142Z,30.13
2023-02-05T16:30:20.763Z,43.78
2023-02-05T16:33:13.589Z,37.05
2023-02-05T16:36:02.913Z,52.63
2023-02-05T16:38:54.657Z,39.35
2023-02-05T16:41:44.360Z,35.17
2023-02-05T16:44:33.970Z,30.10
2023-02-05T16:47:21.817Z,34.13
2023-02-05T16:50:38.169Z,33.70
2023-02-05T16:53:26.838Z,32.90
2023-02-05T16:56:20.471Z,26.25
2023-02-05T16:59:07.332Z,39.75
2023-02-05T17:01:54.615Z,33.67
2023-02-05T17:04:42.851Z,40.90
2023-02-05T17:07:30.967Z,43.35
2023-02-05T17:10:21.754Z,38.58
2023-02-05T17:13:28.373Z,31.42
2023-02-05T17:16:29.844Z,26.58
2023-02-05T17:19:24.994Z,39.42
2023-02-05T17:22:20.991Z,35.67
2023-02-05T17:25:08.290Z,32.03
2023-02-05T17:27:55.240Z,30.20
2023-02-05T17:30:42.896Z,30.85
2023-02-05T17:33:29.873Z,31.70
2023-02-05T17:36:18.006Z,31.35
2023-02-05T17:39:06.090Z,46.25
2023-02-05T17:42:07.465Z,26.52
2023-02-05T17:44:54.520Z,37.53
2023-02-05T17:47:41.690Z,33.17
2023-02-05T17:50:28.517Z,34.92
2023-02-05T17:53:14.934Z,32.75
2023-02-05T17:56:03.026Z,36.67
2023-02-05T17:58:51.201Z,44.33
2023-02-05T18:01:37.867Z,35.88
2023-02-05T18:04:25.117Z,35.13
2023-02-05T18:07:21.089Z,27.40
2023-02-05T18:10:11.443Z,32.45
2023-02-05T18:12:59.528Z,30.13
2023-02-05T18:15:46.292Z,33.47
2023-02-05T18:18:34.201Z,35.65
2023-02-05T18:21:21.500Z,33.17
2023-02-05T18:24:08.006Z,35.22
2023-02-05T18:26:54.649Z,38.42
2023-02-05T18:29:43.893Z,32.92
2023-02-05T18:32:31.034Z,29.88
2023-02-05T18:35:17.995Z,37.10
2023-02-05T18:38:04.871Z,34.17
2023-02-05T18:40:51.704Z,34.30
2023-02-05T18:43:39.082Z,29.52
2023-02-05T18:46:29.093Z,28.17
2023-02-05T18:49:15.852Z,43.90
2023-02-05T18:52:02.540Z,36.92
2023-02-05T18:54:49.464Z,39.60
2023-02-05T18:57:36.369Z,32.00
2023-02-05T19:00:23.495Z,36.38
2023-02-05T19:03:11.398Z,43.00
2023-02-05T19:05:58.170Z,33.97
2023-02-05T19:08:45.365Z,32.50
2023-02-05T19:11:33.968Z,44.88
2023-02-05T19:14:22.576Z,39.72
2023-02-05T19:17:09.470Z,35.25
2023-02-05T19:19:58.600Z,37.88
2023-02-05T19:22:45.969Z,39.40
2023-02-05T19:25:32.505Z,50.65
2023-02-05T19:28:19.408Z,35.25
2023-02-05T19:31:08.314Z,34.70
2023-02-05T19:33:56.211Z,37.22
2023-02-05T19:36:43.991Z,42.65
2023-02-05T19:39:30.922Z,26.70
2023-02-05T19:42:17.446Z,38.97
2023-02-05T19:45:04.453Z,44.97
2023-02-05T19:47:51.494Z,36.22
2023-02-05T19:50:38.083Z,25.38
2023-02-05T19:53:25.990Z,37.97
2023-02-05T19:56:14.751Z,38.33
2023-02-05T19:59:01.616Z,38.45
2023-02-05T20:01:49.730Z,37.35
2023-02-05T20:04:36.347Z,29.88
2023-02-05T20:07:23.208Z,40.83
2023-02-05T20:10:11.370Z,34.33
2023-02-05T20:13:00.436Z,38.05
2023-02-05T20:15:47.088Z,36.25
2023-02-05T20:18:34.117Z,29.88
2023-02-05T20:21:20.619Z,33.13
2023-02-05T20:24:08.317Z,32.42
2023-02-05T20:26:57.349Z,26.35
2023-02-05T20:30:02.020Z,33.63
2023-02-05T20:32:48.698Z,37.53
2023-02-05T20:35:36.126Z,33.47
2023-02-05T20:38:22.522Z,28.00
2023-02-05T20:41:13.150Z,40.33
2023-02-05T20:46:47.966Z,37.08
2023-02-05T20:49:35.845Z,37.70
2023-02-05T20:52:22.519Z,38.72
2023-02-05T20:55:09.539Z,45.03
2023-02-05T20:57:56.293Z,38.85
2023-02-05T21:00:44.604Z,33.28
2023-02-05T21:03:31.308Z,34.15
2023-02-05T21:06:18.934Z,34.78
2023-02-05T21:09:07.238Z,49.90
2023-02-05T21:11:55.411Z,34.97
2023-02-05T21:14:42.065Z,43.03
2023-02-05T21:17:29.963Z,44.22
2023-02-05T21:20:17.363Z,40.25
2023-02-05T21:23:03.900Z,47.15
2023-02-05T21:25:51.563Z,33.47
2023-02-05T21:28:37.899Z,43.10
2023-02-05T21:31:25.541Z,38.08
2023-02-05T21:34:15.550Z,37.13
2023-02-05T21:37:01.922Z,33.50
2023-02-05T21:39:50.874Z,45.17
2023-02-05T21:42:39.384Z,40.90
2023-02-05T21:45:26.343Z,39.72
2023-02-05T21:48:14.225Z,42.20
2023-02-05T21:51:06.649Z,46.25
2023-02-05T21:53:58.773Z,41.40
2023-02-05T21:56:45.686Z,35.65
2023-02-05T21:59:32.438Z,40.45
2023-02-05T22:02:19.160Z,41.45
2023-02-05T22:05:07.078Z,39.08
2023-02-05T22:07:55.456Z,39.78
2023-02-05T22:10:42.116Z,33.60
2023-02-05T22:13:32.108Z,40.00
2023-02-05T22:16:20.790Z,26.27
2023-02-05T22:19:07.952Z,42.80
2023-02-05T22:21:55.242Z,47.75
2023-02-05T22:24:43.652Z,50.67
2023-02-05T22:27:30.868Z,55.55
2023-02-05T22:30:17.751Z,44.33
2023-02-05T22:33:04.406Z,40.92
2023-02-05T22:35:52.850Z,31.63
2023-02-05T22:38:42.446Z,49.40
2023-02-05T22:41:33.378Z,51.95
2023-02-05T22:44:20.454Z,34.15
2023-02-05T22:47:06.893Z,32.80
2023-02-05T22:49:53.579Z,47.75
2023-02-05T22:52:40.237Z,33.97
2023-02-05T22:55:26.975Z,46.95
2023-02-05T22:58:15.020Z,50.20
2023-02-05T23:04:38.683Z,35.65
2023-02-05T23:07:25.238Z,42.05
2023-02-05T23:10:11.885Z,38.92
2023-02-05T23:12:58.901Z,55.08
2023-02-05T23:15:46.768Z,38.40
2023-02-05T23:18:33.195Z,47.60
2023-02-05T23:21:22.884Z,39.65
2023-02-05T23:24:10.047Z,37.15
2023-02-05T23:26:56.490Z,27.15
2023-02-05T23:29:43.059Z,36.20
2023-02-05T23:32:30.992Z,37.55
2023-02-05T23:35:17.615Z,37.50
2023-02-05T23:38:04.056Z,44.80
2023-02-05T23:40:50.868Z,38.50
2023-02-05T23:43:38.246Z,29.92
2023-02-05T23:46:24.844Z,30.67
2023-02-05T23:49:13.560Z,36.10
2023-02-05T23:52:00.070Z,43.20
2023-02-05T23:54:46.573Z,47.05
2023-02-05T23:57:33.558Z,48.63
